Niverville, New York
Current Conditions -  °F | °C
As of 7:01 AM on Friday 24 Oct 2014 (Local Time) from KPSF Reporting Station
Light Rain Light Rain  
Wind Chill: 40°   Ceiling: 1400
Heat Index: 43°   Visibility: 7mi
Dew Point: 41°   Wind: 5mph
Humidity: 93%   Direction: 310°NW
Pressure: 29.78"   Gusts: NA
Location:  42.45°N, 73.65°W
Report Text: KPSF 241101Z AUTO 31004KT 7SM -RA BKN014 OVC043 06/05 A2978 RMK AO2 P0000 T00610050
Loading
Personal Weather Stations






























Interactive Weather Map
Tropical Storm Tracking
New forecast layout! Learn more

10-Day Weather Forecast

Advertisements
Track Severe Weather on mobile